Time;durP1;ratioP1;P1;durP2;ratioP2;P2;SDS_P1;SDS_P2;PMS_P1;PMS_P2;Temp;Humidity;BMP_temperature;BMP_pressure;BME280_temperature;BME280_humidity;BME280_pressure;Samples;Min_cycle;Max_cycle;Signal;HPM_P1;HPM_P2
2023/08/17 00:00:28;;;;;;;;;;;;;;;-144.99;nan;52297.25;5051474;28;19977;-68
2023/08/17 00:02:56;;;;;;;;;;;;;;;-144.99;nan;52260.56;5044231;28;20053;-68
2023/08/17 00:05:23;;;;;;;;;;;;;;;-144.99;nan;52260.56;5048682;28;19949;-68
2023/08/17 00:07:49;;;;;;;;;;;;;;;-144.99;nan;52280.97;5047437;28;20009;-68
2023/08/17 00:10:16;;;;;;;;;;;;;;;-144.99;nan;52256.50;5049886;28;19975;-68
2023/08/17 00:12:42;;;;;;;;;;;;;;;-144.99;nan;52276.88;5050089;28;20052;-68
2023/08/17 00:15:09;;;;;;;;;;;;;;;-144.99;nan;52285.03;5051629;28;19941;-69
2023/08/17 00:17:35;;;;;;;;;;;;;;;-144.99;nan;52285.03;5048052;28;20040;-68
2023/08/17 00:20:05;;;;;;;;;;;;;;;-144.99;nan;52266.69;5048673;28;19941;-70
2023/08/17 00:22:31;;;;;;;;;;;;;;;-144.99;nan;52289.13;5044000;28;20414;-69
2023/08/17 00:24:57;;;;;;;;;;;;;;;-144.99;nan;52272.81;5038591;28;19943;-68
2023/08/17 00:27:24;;;;;;;;;;;;;;;-144.99;nan;52280.97;5047555;28;20053;-69
2023/08/17 00:29:50;;;;;;;;;;;;;;;-144.99;nan;52276.88;5034933;28;19986;-67
2023/08/17 00:32:17;;;;;;;;;;;;;;;-144.99;nan;52225.94;5052409;28;20018;-68
2023/08/17 00:34:43;;;;;;;;;;;;;;;-144.99;nan;52285.03;5056593;28;20052;-67
2023/08/17 00:37:11;;;;;;;;;;;;;;;-144.99;nan;52268.72;5047754;28;19956;-67
2023/08/17 00:39:37;;;;;;;;;;;;;;;-144.99;nan;52248.34;5038312;28;19954;-67
2023/08/17 00:42:04;;;;;;;;;;;;;;;-144.99;nan;52240.19;5041478;28;20295;-68
2023/08/17 00:44:30;;;;;;;;;;;;;;;-144.99;nan;52295.22;5047816;28;20044;-67
2023/08/17 00:46:57;;;;;;;;;;;;;;;-144.99;nan;52268.72;5041219;28;19942;-68
2023/08/17 00:49:23;;;;;;;;;;;;;;;-144.99;nan;52295.22;5043657;28;20445;-66
2023/08/17 00:51:50;;;;;;;;;;;;;;;-144.99;nan;52285.03;5041748;28;19976;-66
2023/08/17 00:54:23;;;;;;;;;;;;;;;-144.99;nan;52289.13;5035862;28;19954;-67
2023/08/17 00:56:49;;;;;;;;;;;;;;;-144.99;nan;52268.72;5046987;28;19966;-70
2023/08/17 00:59:16;;;;;;;;;;;;;;;-144.99;nan;52264.66;5046898;28;19958;-67
2023/08/17 01:01:43;;;;;;;;;;;;;;;-144.99;nan;52258.53;5034289;28;20645;-69
2023/08/17 01:04:10;;;;;;;;;;;;;;;-144.99;nan;52289.13;5042901;28;19977;-65
2023/08/17 01:06:36;;;;;;;;;;;;;;;-144.99;nan;52264.66;5045466;28;20041;-66
2023/08/17 01:09:03;;;;;;;;;;;;;;;-144.99;nan;52260.56;5044997;28;19950;-66
2023/08/17 01:11:35;;;;;;;;;;;;;;;-144.99;nan;52276.88;5044065;28;20054;-66
2023/08/17 01:14:05;;;;;;;;;;;;;;;-144.99;nan;52293.19;5045321;28;20057;-67
2023/08/17 01:16:34;;;;;;;;;;;;;;;-144.99;nan;52252.44;5050838;28;19960;-69
2023/08/17 01:19:01;;;;;;;;;;;;;;;-144.99;nan;52244.28;5048309;28;20002;-68
2023/08/17 01:21:30;;;;;;;;;;;;;;;-144.99;nan;52317.66;5043959;28;20380;-63
2023/08/17 01:24:00;;;;;;;;;;;;;;;-144.99;nan;52293.19;5048847;28;20020;-63
2023/08/17 01:26:26;;;;;;;;;;;;;;;-144.99;nan;52264.66;5043712;28;19946;-63
2023/08/17 01:28:53;;;;;;;;;;;;;;;-144.99;nan;52289.13;5049976;28;19946;-63
2023/08/17 01:31:22;;;;;;;;;;;;;;;-144.99;nan;52301.34;5037528;28;19947;-63
2023/08/17 01:33:51;;;;;;;;;;;;;;;-144.99;nan;52289.13;5045866;28;20311;-63
2023/08/17 01:36:20;;;;;;;;;;;;;;;-144.99;nan;52276.88;5044929;28;20459;-63
2023/08/17 01:38:47;;;;;;;;;;;;;;;-144.99;nan;52264.66;5050546;28;19976;-61
2023/08/17 01:41:16;;;;;;;;;;;;;;;-144.99;nan;52289.13;5047789;28;20040;-64
2023/08/17 01:43:45;;;;;;;;;;;;;;;-144.99;nan;52240.19;5042196;28;19949;-62
2023/08/17 01:46:13;;;;;;;;;;;;;;;-144.99;nan;52264.66;5035831;28;19942;-63
2023/08/17 01:48:40;;;;;;;;;;;;;;;-144.99;nan;52285.03;5047294;28;20006;-63
2023/08/17 01:51:06;;;;;;;;;;;;;;;-144.99;nan;52268.72;5044576;28;20447;-64
2023/08/17 01:53:33;;;;;;;;;;;;;;;-144.99;nan;52289.13;5045947;28;20422;-63
2023/08/17 01:55:59;;;;;;;;;;;;;;;-144.99;nan;52242.22;5037525;28;20001;-64
2023/08/17 01:58:27;;;;;;;;;;;;;;;-144.99;nan;52289.13;5045262;28;20016;-71
2023/08/17 02:00:53;;;;;;;;;;;;;;;-144.99;nan;52280.97;5043430;28;20600;-69
2023/08/17 02:03:20;;;;;;;;;;;;;;;-144.99;nan;52317.66;5047643;28;20293;-69
2023/08/17 02:05:46;;;;;;;;;;;;;;;-144.99;nan;52254.47;5050227;28;20499;-68
2023/08/17 02:08:13;;;;;;;;;;;;;;;-144.99;nan;52264.66;5049504;28;20008;-67
2023/08/17 02:10:39;;;;;;;;;;;;;;;-144.99;nan;52303.38;5042877;28;20009;-67
2023/08/17 02:13:06;;;;;;;;;;;;;;;-144.99;nan;52254.47;5045499;28;20408;-69
2023/08/17 02:15:38;;;;;;;;;;;;;;;-144.99;nan;52227.97;5037783;28;19955;-70
2023/08/17 02:18:05;;;;;;;;;;;;;;;-144.99;nan;52289.13;5041503;28;19943;-67
2023/08/17 02:20:31;;;;;;;;;;;;;;;-144.99;nan;52260.56;5044590;28;20439;-69
2023/08/17 02:22:58;;;;;;;;;;;;;;;-144.99;nan;52280.97;5047895;28;20061;-70
2023/08/17 02:25:24;;;;;;;;;;;;;;;-144.99;nan;52297.25;5041029;28;20004;-69
2023/08/17 02:27:51;;;;;;;;;;;;;;;-144.99;nan;52252.44;5044802;28;19981;-69
2023/08/17 02:30:17;;;;;;;;;;;;;;;-144.99;nan;52240.19;5058315;28;19962;-72
2023/08/17 02:32:45;;;;;;;;;;;;;;;-144.99;nan;52268.72;5054387;28;20493;-69
2023/08/17 02:35:12;;;;;;;;;;;;;;;-144.99;nan;52242.22;5047488;28;20048;-68
2023/08/17 02:37:38;;;;;;;;;;;;;;;-144.99;nan;52301.34;5044241;28;19990;-68
2023/08/17 02:40:05;;;;;;;;;;;;;;;-144.99;nan;52232.03;5047794;28;19949;-69
2023/08/17 02:42:31;;;;;;;;;;;;;;;-144.99;nan;52293.19;5044892;28;20334;-68
2023/08/17 02:44:58;;;;;;;;;;;;;;;-144.99;nan;52285.03;5048589;28;20034;-68
2023/08/17 02:47:24;;;;;;;;;;;;;;;-144.99;nan;52305.41;5037174;28;20367;-68
2023/08/17 02:49:52;;;;;;;;;;;;;;;-144.99;nan;52260.56;5043488;28;20025;-68
2023/08/17 02:52:19;;;;;;;;;;;;;;;-144.99;nan;52293.19;5043263;28;20089;-69
2023/08/17 02:54:45;;;;;;;;;;;;;;;-144.99;nan;52270.78;5038841;28;19993;-69
2023/08/17 02:57:11;;;;;;;;;;;;;;;-144.99;nan;52248.34;5041365;28;19966;-68
2023/08/17 02:59:38;;;;;;;;;;;;;;;-144.99;nan;52260.56;5043594;28;20039;-68
2023/08/17 03:02:04;;;;;;;;;;;;;;;-144.99;nan;52256.50;5048323;28;20403;-68
2023/08/17 03:04:31;;;;;;;;;;;;;;;-144.99;nan;52280.97;5048245;28;19997;-66
2023/08/17 03:06:59;;;;;;;;;;;;;;;-144.99;nan;52331.91;5032174;28;20040;-69
2023/08/17 03:09:25;;;;;;;;;;;;;;;-144.99;nan;52264.66;5060530;28;19938;-70
2023/08/17 03:11:52;;;;;;;;;;;;;;;-144.99;nan;52260.56;5052187;28;20449;-66
2023/08/17 03:14:18;;;;;;;;;;;;;;;-144.99;nan;52289.13;5043362;28;19953;-64
2023/08/17 03:16:45;;;;;;;;;;;;;;;-144.99;nan;52260.56;5042884;28;20064;-65
2023/08/17 03:19:11;;;;;;;;;;;;;;;-144.99;nan;52289.13;5033022;28;19983;-63
2023/08/17 03:21:38;;;;;;;;;;;;;;;-144.99;nan;52283.00;5038294;28;20047;-63
2023/08/17 03:24:06;;;;;;;;;;;;;;;-144.99;nan;52285.03;5040686;28;19979;-65
2023/08/17 03:26:33;;;;;;;;;;;;;;;-144.99;nan;52313.56;5039293;28;20050;-68
2023/08/17 03:28:59;;;;;;;;;;;;;;;-144.99;nan;52323.75;5033101;28;19943;-70
2023/08/17 03:31:26;;;;;;;;;;;;;;;-144.99;nan;52270.78;5035223;28;19966;-70
2023/08/17 03:33:52;;;;;;;;;;;;;;;-144.99;nan;52325.81;5043147;28;20220;-70
2023/08/17 03:36:19;;;;;;;;;;;;;;;-144.99;nan;52268.72;5036847;28;20046;-70
2023/08/17 03:38:45;;;;;;;;;;;;;;;-144.99;nan;52299.31;5033957;28;20156;-70
2023/08/17 03:41:13;;;;;;;;;;;;;;;-144.99;nan;52266.69;5041535;28;20045;-71
2023/08/17 03:43:40;;;;;;;;;;;;;;;-144.99;nan;52256.50;5043140;28;20423;-70
2023/08/17 03:46:06;;;;;;;;;;;;;;;-144.99;nan;52276.88;5039869;28;19989;-69
2023/08/17 03:48:33;;;;;;;;;;;;;;;-144.99;nan;52307.47;5044361;28;19991;-69
2023/08/17 03:51:01;;;;;;;;;;;;;;;-144.99;nan;52293.19;5052369;28;19942;-68
2023/08/17 03:53:27;;;;;;;;;;;;;;;-144.99;nan;52260.56;5037952;28;19958;-69
2023/08/17 03:55:54;;;;;;;;;;;;;;;-144.99;nan;52293.19;5034472;28;19989;-69
2023/08/17 03:58:21;;;;;;;;;;;;;;;-144.99;nan;52301.34;5040785;28;20008;-69
2023/08/17 04:00:50;;;;;;;;;;;;;;;-144.99;nan;52280.97;5033339;28;19997;-69
2023/08/17 04:03:16;;;;;;;;;;;;;;;-144.99;nan;52285.03;5031390;28;20019;-70
2023/08/17 04:05:43;;;;;;;;;;;;;;;-144.99;nan;52248.34;5038386;28;19981;-69
2023/08/17 04:08:09;;;;;;;;;;;;;;;-144.99;nan;52264.66;5035756;28;20030;-69
2023/08/17 04:10:36;;;;;;;;;;;;;;;-144.99;nan;52285.03;5039771;28;19947;-69
2023/08/17 04:13:02;;;;;;;;;;;;;;;-144.99;nan;52305.41;5042080;28;20420;-67
2023/08/17 04:15:30;;;;;;;;;;;;;;;-144.99;nan;52289.13;5037664;28;19947;-66
2023/08/17 04:17:57;;;;;;;;;;;;;;;-144.99;nan;52270.78;5033234;28;19977;-66
2023/08/17 04:20:25;;;;;;;;;;;;;;;-144.99;nan;52311.53;5039805;28;20656;-67
2023/08/17 04:22:51;;;;;;;;;;;;;;;-144.99;nan;52280.97;5031750;28;19959;-66
2023/08/17 04:25:18;;;;;;;;;;;;;;;-144.99;nan;52301.34;5035413;28;20006;-67
2023/08/17 04:27:44;;;;;;;;;;;;;;;-144.99;nan;52240.19;5037419;28;20330;-67
2023/08/17 04:30:11;;;;;;;;;;;;;;;-144.99;nan;52295.22;5041415;28;20077;-67
2023/08/17 04:32:39;;;;;;;;;;;;;;;-144.99;nan;52285.03;5035555;28;20043;-67
2023/08/17 04:35:06;;;;;;;;;;;;;;;-144.99;nan;52272.81;5035806;28;19941;-67
2023/08/17 04:37:32;;;;;;;;;;;;;;;-144.99;nan;52295.22;5042882;28;20017;-67
2023/08/17 04:39:59;;;;;;;;;;;;;;;-144.99;nan;52232.03;5034380;28;19992;-67
2023/08/17 04:42:25;;;;;;;;;;;;;;;-144.99;nan;52280.97;5032844;28;19978;-73
2023/08/17 04:44:52;;;;;;;;;;;;;;;-144.99;nan;52285.03;5053380;28;20005;-74
2023/08/17 04:47:18;;;;;;;;;;;;;;;-144.99;nan;52319.69;5051666;28;19998;-75
2023/08/17 04:49:46;;;;;;;;;;;;;;;-144.99;nan;52285.03;5037181;28;19948;-73
2023/08/17 04:52:13;;;;;;;;;;;;;;;-144.99;nan;52276.88;5040267;28;19963;-74
2023/08/17 04:54:39;;;;;;;;;;;;;;;-144.99;nan;52252.44;5050098;28;19953;-71
2023/08/17 04:57:06;;;;;;;;;;;;;;;-144.99;nan;52256.50;5056860;22;20088;-70
2023/08/17 04:59:32;;;;;;;;;;;;;;;-144.99;nan;52289.13;5051452;28;20036;-69
2023/08/17 05:01:58;;;;;;;;;;;;;;;-144.99;nan;52252.44;5053646;28;19996;-73
2023/08/17 05:04:25;;;;;;;;;;;;;;;-144.99;nan;52305.41;5056386;28;20379;-70
2023/08/17 05:06:53;;;;;;;;;;;;;;;-144.99;nan;52289.13;5060097;28;19948;-70
2023/08/17 05:09:19;;;;;;;;;;;;;;;-144.99;nan;52280.97;5054200;28;19959;-70
2023/08/17 05:11:46;;;;;;;;;;;;;;;-144.99;nan;52293.19;5051381;28;20067;-70
2023/08/17 05:14:12;;;;;;;;;;;;;;;-144.99;nan;52305.41;5064939;28;20344;-69
2023/08/17 05:16:38;;;;;;;;;;;;;;;-144.99;nan;52301.34;5054991;28;19952;-70
2023/08/17 05:19:05;;;;;;;;;;;;;;;-144.99;nan;52252.44;5059579;28;20008;-70
2023/08/17 05:21:31;;;;;;;;;;;;;;;-144.99;nan;52285.03;5063643;28;19992;-70
2023/08/17 05:23:59;;;;;;;;;;;;;;;-144.99;nan;52301.34;5057608;28;19991;-69
2023/08/17 05:26:26;;;;;;;;;;;;;;;-144.99;nan;52268.72;5055275;28;19953;-72
2023/08/17 05:28:52;;;;;;;;;;;;;;;-144.99;nan;52262.63;5060209;28;20028;-66
2023/08/17 05:31:18;;;;;;;;;;;;;;;-144.99;nan;52313.56;5062960;28;20041;-67
2023/08/17 05:33:45;;;;;;;;;;;;;;;-144.99;nan;52295.22;5056639;28;19950;-71
2023/08/17 05:36:13;;;;;;;;;;;;;;;-144.99;nan;52280.97;5064711;28;19951;-70
2023/08/17 05:38:39;;;;;;;;;;;;;;;-144.99;nan;52309.50;5068580;28;19976;-71
2023/08/17 05:41:07;;;;;;;;;;;;;;;-144.99;nan;52317.66;5064606;28;19988;-70
2023/08/17 05:43:33;;;;;;;;;;;;;;;-144.99;nan;52264.66;5068267;28;20045;-70
2023/08/17 05:46:00;;;;;;;;;;;;;;;-144.99;nan;52285.03;5066542;28;20055;-70
2023/08/17 05:48:26;;;;;;;;;;;;;;;-144.99;nan;52280.97;5069007;28;20055;-70
2023/08/17 05:50:53;;;;;;;;;;;;;;;-144.99;nan;52272.81;5068277;28;20399;-70
2023/08/17 05:53:19;;;;;;;;;;;;;;;-144.99;nan;52280.97;5066079;28;20518;-71
2023/08/17 05:55:46;;;;;;;;;;;;;;;-144.99;nan;52297.25;5068357;28;19992;-70
2023/08/17 05:58:13;;;;;;;;;;;;;;;-144.99;nan;52268.72;5058312;28;20011;-69
2023/08/17 06:00:40;;;;;;;;;;;;;;;-144.99;nan;52309.50;5070614;28;20407;-69
2023/08/17 06:03:06;;;;;;;;;;;;;;;-144.99;nan;52317.66;5057806;28;19990;-71
2023/08/17 06:05:33;;;;;;;;;;;;;;;-144.99;nan;52260.56;5067308;28;20032;-67
2023/08/17 06:07:59;;;;;;;;;;;;;;;-144.99;nan;52256.50;5058299;28;19983;-67
2023/08/17 06:10:26;;;;;;;;;;;;;;;-144.99;nan;52309.50;5056174;28;19977;-66
2023/08/17 06:12:53;;;;;;;;;;;;;;;-144.99;nan;52285.03;5059352;28;19958;-68
2023/08/17 06:15:20;;;;;;;;;;;;;;;-144.99;nan;52305.41;5065119;28;19952;-67
2023/08/17 06:17:49;;;;;;;;;;;;;;;-144.99;nan;52270.78;5068016;28;20396;-67
2023/08/17 06:20:16;;;;;;;;;;;;;;;-144.99;nan;52307.47;5066738;28;19955;-68
2023/08/17 06:22:42;;;;;;;;;;;;;;;-144.99;nan;52301.34;5057241;28;20443;-67
2023/08/17 06:25:09;;;;;;;;;;;;;;;-144.99;nan;52301.34;5064353;28;20046;-67
2023/08/17 06:27:35;;;;;;;;;;;;;;;-144.99;nan;52305.41;5061245;28;19945;-67
2023/08/17 06:30:02;;;;;;;;;;;;;;;-144.99;nan;52276.88;5063875;28;20005;-68
2023/08/17 06:32:30;;;;;;;;;;;;;;;-144.99;nan;52260.56;5065929;28;19956;-67
2023/08/17 06:34:57;;;;;;;;;;;;;;;-144.99;nan;52260.56;5068668;28;20000;-67
2023/08/17 06:37:23;;;;;;;;;;;;;;;-144.99;nan;52272.81;5066659;28;20376;-67
2023/08/17 06:39:50;;;;;;;;;;;;;;;-144.99;nan;52285.03;5052320;28;19942;-67
2023/08/17 06:42:16;;;;;;;;;;;;;;;-144.99;nan;52248.34;5063111;28;19970;-67
2023/08/17 06:44:43;;;;;;;;;;;;;;;-144.99;nan;52268.72;5061827;28;19947;-67
2023/08/17 06:47:09;;;;;;;;;;;;;;;-144.99;nan;52248.34;5058310;28;20038;-68
2023/08/17 06:49:37;;;;;;;;;;;;;;;-144.99;nan;52268.72;5066517;28;19951;-68
2023/08/17 06:52:03;;;;;;;;;;;;;;;-144.99;nan;52260.56;5061360;28;20052;-68
2023/08/17 06:54:32;;;;;;;;;;;;;;;-144.99;nan;52268.72;5064609;28;19980;-68
2023/08/17 06:56:58;;;;;;;;;;;;;;;-144.99;nan;52278.91;5060835;28;19961;-68
2023/08/17 06:59:24;;;;;;;;;;;;;;;-144.99;nan;52293.19;5069270;28;19982;-67
2023/08/17 07:01:51;;;;;;;;;;;;;;;-144.99;nan;52280.97;5064774;28;19959;-68
2023/08/17 07:04:17;;;;;;;;;;;;;;;-144.99;nan;52276.88;5061840;28;19981;-68
2023/08/17 07:06:45;;;;;;;;;;;;;;;-144.99;nan;52303.38;5069390;28;19946;-68
2023/08/17 07:09:12;;;;;;;;;;;;;;;-144.99;nan;52276.88;5057888;28;19952;-67
2023/08/17 07:11:39;;;;;;;;;;;;;;;-144.99;nan;52289.13;5069212;28;19961;-70
2023/08/17 07:14:06;;;;;;;;;;;;;;;-144.99;nan;52289.13;5069266;28;20301;-69
2023/08/17 07:16:32;;;;;;;;;;;;;;;-144.99;nan;52256.50;5061523;28;20060;-69
2023/08/17 07:18:59;;;;;;;;;;;;;;;-144.99;nan;52268.72;5058079;28;19997;-70
2023/08/17 07:21:25;;;;;;;;;;;;;;;-144.99;nan;52285.03;5052376;28;19974;-70
2023/08/17 07:23:55;;;;;;;;;;;;;;;-144.99;nan;52285.03;5061419;28;19955;-69
2023/08/17 07:26:22;;;;;;;;;;;;;;;-144.99;nan;52293.19;5057049;28;19997;-70
2023/08/17 07:28:49;;;;;;;;;;;;;;;-144.99;nan;52297.25;5064090;28;19950;-71
2023/08/17 07:31:16;;;;;;;;;;;;;;;-144.99;nan;52285.03;5061547;28;20041;-70
2023/08/17 07:33:42;;;;;;;;;;;;;;;-144.99;nan;52264.66;5056190;28;20401;-70
2023/08/17 07:36:08;;;;;;;;;;;;;;;-144.99;nan;52305.41;5062505;28;20036;-70
2023/08/17 07:38:35;;;;;;;;;;;;;;;-144.99;nan;52260.56;5057977;28;20064;-68
2023/08/17 07:41:03;;;;;;;;;;;;;;;-144.99;nan;52276.88;5068620;28;19997;-69
2023/08/17 07:43:29;;;;;;;;;;;;;;;-144.99;nan;52317.66;5063355;28;20442;-68
2023/08/17 07:45:56;;;;;;;;;;;;;;;-144.99;nan;52325.81;5065183;28;19941;-68
2023/08/17 07:48:22;;;;;;;;;;;;;;;-144.99;nan;52264.66;5068545;28;19950;-67
2023/08/17 07:50:50;;;;;;;;;;;;;;;-144.99;nan;52293.19;5063523;28;19942;-68
2023/08/17 07:53:16;;;;;;;;;;;;;;;-144.99;nan;52325.81;5064618;28;19987;-68
2023/08/17 07:55:42;;;;;;;;;;;;;;;-144.99;nan;52291.16;5058532;28;20371;-68
2023/08/17 07:58:10;;;;;;;;;;;;;;;-144.99;nan;52280.97;5054221;28;20423;-68
2023/08/17 08:00:37;;;;;;;;;;;;;;;-144.99;nan;52297.25;5053526;28;20401;-68
2023/08/17 08:03:03;;;;;;;;;;;;;;;-144.99;nan;52289.13;5064072;28;19999;-68
2023/08/17 08:05:30;;;;;;;;;;;;;;;-144.99;nan;52272.81;5061862;28;20387;-68
2023/08/17 08:07:56;;;;;;;;;;;;;;;-144.99;nan;52289.13;5067810;28;20053;-68
2023/08/17 08:10:23;;;;;;;;;;;;;;;-144.99;nan;52305.41;5068440;28;20046;-68
2023/08/17 08:12:49;;;;;;;;;;;;;;;-144.99;nan;52297.25;5056277;28;19959;-68
2023/08/17 08:15:17;;;;;;;;;;;;;;;-144.99;nan;52272.81;5068390;28;19948;-69
2023/08/17 08:17:44;;;;;;;;;;;;;;;-144.99;nan;52305.41;5065362;28;20056;-69
2023/08/17 08:20:11;;;;;;;;;;;;;;;-144.99;nan;52293.19;5063179;28;20004;-69
2023/08/17 08:22:37;;;;;;;;;;;;;;;-144.99;nan;52289.13;5070000;28;19997;-68
2023/08/17 08:25:04;;;;;;;;;;;;;;;-144.99;nan;52232.03;5071676;28;20035;-68
2023/08/17 08:27:30;;;;;;;;;;;;;;;-144.99;nan;52297.25;5069520;28;19947;-68
2023/08/17 08:29:57;;;;;;;;;;;;;;;-144.99;nan;52240.19;5072448;28;20063;-69
2023/08/17 08:32:25;;;;;;;;;;;;;;;-144.99;nan;52268.72;5069540;28;20036;-68
2023/08/17 08:34:51;;;;;;;;;;;;;;;-144.99;nan;52340.06;5063734;28;20414;-68
2023/08/17 08:37:18;;;;;;;;;;;;;;;-144.99;nan;52252.44;5071654;28;19954;-70
2023/08/17 08:39:51;;;;;;;;;;;;;;;-144.99;nan;52293.19;5071735;28;19966;-69
2023/08/17 08:42:18;;;;;;;;;;;;;;;-144.99;nan;52272.81;5062992;28;20065;-71
2023/08/17 08:44:45;;;;;;;;;;;;;;;-144.99;nan;52297.25;5068841;28;19961;-69
2023/08/17 08:47:12;;;;;;;;;;;;;;;-144.99;nan;52244.28;5058284;28;20041;-70
2023/08/17 08:49:40;;;;;;;;;;;;;;;-144.99;nan;52252.44;5070317;28;19946;-68
2023/08/17 08:52:08;;;;;;;;;;;;;;;-144.99;nan;52289.13;5068857;28;19994;-68
2023/08/17 08:54:36;;;;;;;;;;;;;;;-144.99;nan;52309.50;5070372;28;19953;-69
2023/08/17 08:57:07;;;;;;;;;;;;;;;-144.99;nan;52276.88;5068638;28;20065;-70
2023/08/17 08:59:34;;;;;;;;;;;;;;;-144.99;nan;52285.03;5068980;28;19967;-69
2023/08/17 09:02:01;;;;;;;;;;;;;;;-144.99;nan;52280.97;5066648;28;20335;-69
2023/08/17 09:04:28;;;;;;;;;;;;;;;-144.99;nan;52293.19;5065941;28;19995;-71
2023/08/17 09:06:56;;;;;;;;;;;;;;;-144.99;nan;52264.66;5067782;28;19974;-71
2023/08/17 09:09:23;;;;;;;;;;;;;;;-144.99;nan;52250.38;5062709;28;19954;-71
2023/08/17 09:11:50;;;;;;;;;;;;;;;-144.99;nan;52264.66;5065810;28;20488;-71
2023/08/17 09:14:16;;;;;;;;;;;;;;;-144.99;nan;52232.03;5064820;28;19998;-72
2023/08/17 09:16:43;;;;;;;;;;;;;;;-144.99;nan;52272.81;5061041;28;19945;-69
2023/08/17 09:19:10;;;;;;;;;;;;;;;-144.99;nan;52260.56;5065212;28;19977;-71
2023/08/17 09:21:36;;;;;;;;;;;;;;;-144.99;nan;52250.38;5063669;28;20026;-73
2023/08/17 09:24:05;;;;;;;;;;;;;;;-144.99;nan;52285.03;5067802;28;20102;-70
2023/08/17 09:26:31;;;;;;;;;;;;;;;-144.99;nan;52258.53;5066409;28;19959;-71
2023/08/17 09:28:58;;;;;;;;;;;;;;;-144.99;nan;52266.69;5065607;28;20387;-70
2023/08/17 09:31:25;;;;;;;;;;;;;;;-144.99;nan;52264.66;5070878;28;20047;-70
2023/08/17 09:33:52;;;;;;;;;;;;;;;-144.99;nan;52333.94;5058937;28;20046;-73
2023/08/17 09:36:21;;;;;;;;;;;;;;;-144.99;nan;52246.31;5071485;28;19983;-70
2023/08/17 09:38:47;;;;;;;;;;;;;;;-144.99;nan;52254.47;5069596;28;20046;-68
2023/08/17 09:41:15;;;;;;;;;;;;;;;-144.99;nan;52293.19;5065980;28;19946;-68
2023/08/17 09:43:41;;;;;;;;;;;;;;;-144.99;nan;52276.88;5070981;28;19993;-68
2023/08/17 09:46:08;;;;;;;;;;;;;;;-144.99;nan;52268.72;5063062;28;19966;-68
2023/08/17 09:48:35;;;;;;;;;;;;;;;-144.99;nan;52260.56;5061004;28;19973;-68
2023/08/17 09:51:02;;;;;;;;;;;;;;;-144.99;nan;52240.19;5053193;28;19984;-68
2023/08/17 09:53:28;;;;;;;;;;;;;;;-144.99;nan;52242.22;5063185;28;19976;-68
2023/08/17 09:55:56;;;;;;;;;;;;;;;-144.99;nan;52223.88;5057896;28;19992;-68
2023/08/17 09:58:23;;;;;;;;;;;;;;;-144.99;nan;52280.97;5068031;28;20302;-68
2023/08/17 10:00:51;;;;;;;;;;;;;;;-144.99;nan;52276.88;5060113;28;19983;-67
2023/08/17 10:03:18;;;;;;;;;;;;;;;-144.99;nan;52227.97;5065793;28;20003;-67
2023/08/17 10:05:45;;;;;;;;;;;;;;;-144.99;nan;52240.19;5059791;28;19989;-67
2023/08/17 10:08:12;;;;;;;;;;;;;;;-144.99;nan;52272.81;5059950;28;19942;-69
2023/08/17 10:10:41;;;;;;;;;;;;;;;-144.99;nan;52260.56;5054563;28;20046;-68
2023/08/17 10:13:09;;;;;;;;;;;;;;;-144.99;nan;52240.19;5057736;28;20344;-68
2023/08/17 10:15:38;;;;;;;;;;;;;;;-144.99;nan;52240.19;5065622;28;19957;-68
2023/08/17 10:18:10;;;;;;;;;;;;;;;-144.99;nan;52276.88;5067982;28;20504;-68
2023/08/17 10:20:37;;;;;;;;;;;;;;;-144.99;nan;52285.03;5061501;28;19951;-68
2023/08/17 10:23:08;;;;;;;;;;;;;;;-144.99;nan;52260.56;5063572;28;20042;-68
2023/08/17 10:25:36;;;;;;;;;;;;;;;-144.99;nan;52260.56;5060313;28;20328;-68
2023/08/17 10:28:03;;;;;;;;;;;;;;;-144.99;nan;52270.78;5063012;28;20304;-69
2023/08/17 10:30:30;;;;;;;;;;;;;;;-144.99;nan;52276.88;5067643;28;19952;-68
2023/08/17 10:32:58;;;;;;;;;;;;;;;-144.99;nan;52256.50;5068431;28;19995;-68
2023/08/17 10:35:24;;;;;;;;;;;;;;;-144.99;nan;52248.34;5064198;28;20355;-68
2023/08/17 10:37:51;;;;;;;;;;;;;;;-144.99;nan;52236.13;5059009;28;20039;-69
2023/08/17 10:40:18;;;;;;;;;;;;;;;-144.99;nan;52250.38;5064985;28;19965;-71
2023/08/17 10:42:46;;;;;;;;;;;;;;;-144.99;nan;52236.13;5067525;28;20014;-71
2023/08/17 10:45:29;;;;;;;;;;;;;;;-144.99;nan;52232.03;5065823;28;20344;-71
2023/08/17 10:48:25;;;;;;;;;;;;;;;-144.99;nan;52240.19;5063655;28;20354;-70
2023/08/17 10:51:02;;;;;;;;;;;;;;;-144.99;nan;52236.13;5069871;28;20060;-72
2023/08/17 10:53:34;;;;;;;;;;;;;;;-144.99;nan;52264.66;5061965;28;20013;-70
2023/08/17 10:56:01;;;;;;;;;;;;;;;-144.99;nan;52246.31;5057997;28;20309;-71
2023/08/17 10:58:31;;;;;;;;;;;;;;;-144.99;nan;52297.25;5063918;28;19951;-71
2023/08/17 11:00:58;;;;;;;;;;;;;;;-144.99;nan;52252.44;5069700;28;20048;-70
2023/08/17 11:03:26;;;;;;;;;;;;;;;-144.99;nan;52256.50;5067212;28;19960;-70
2023/08/17 11:05:53;;;;;;;;;;;;;;;-144.99;nan;52264.66;5060454;22;20506;-74
2023/08/17 11:08:21;;;;;;;;;;;;;;;-144.99;nan;52248.34;5034198;28;20038;-73
2023/08/17 11:10:49;;;;;;;;;;;;;;;-144.99;nan;52266.69;5032801;28;20040;-73
2023/08/17 11:13:15;;;;;;;;;;;;;;;-144.99;nan;52240.19;5047777;28;20388;-73
2023/08/17 11:15:44;;;;;;;;;;;;;;;-144.99;nan;52256.50;5039455;28;20061;-73
2023/08/17 11:18:11;;;;;;;;;;;;;;;-144.99;nan;52252.44;5041076;28;19944;-73
2023/08/17 11:20:39;;;;;;;;;;;;;;;-144.99;nan;52264.66;5020133;28;19975;-73
2023/08/17 11:23:06;;;;;;;;;;;;;;;-144.99;nan;52232.03;5047975;28;19967;-73
2023/08/17 11:25:34;;;;;;;;;;;;;;;-144.99;nan;52272.81;5047276;28;19952;-73
2023/08/17 11:28:00;;;;;;;;;;;;;;;-144.99;nan;52256.50;5042767;28;19986;-72
2023/08/17 11:30:28;;;;;;;;;;;;;;;-144.99;nan;52264.66;5037977;28;19968;-72
2023/08/17 11:32:55;;;;;;;;;;;;;;;-144.99;nan;52240.19;5047993;28;20053;-73
2023/08/17 11:35:22;;;;;;;;;;;;;;;-144.99;nan;52297.25;5044883;28;19946;-73
2023/08/17 11:37:50;;;;;;;;;;;;;;;-144.99;nan;52268.72;5050126;28;20016;-73
2023/08/17 11:40:17;;;;;;;;;;;;;;;-144.99;nan;52244.28;5048437;28;20317;-73
2023/08/17 11:42:43;;;;;;;;;;;;;;;-144.99;nan;52276.88;5048322;28;19992;-73
2023/08/17 11:45:10;;;;;;;;;;;;;;;-144.99;nan;52260.56;5045998;28;19945;-72
2023/08/17 11:47:37;;;;;;;;;;;;;;;-144.99;nan;52280.97;5038800;28;20134;-73
2023/08/17 11:50:04;;;;;;;;;;;;;;;-144.99;nan;52297.25;5033811;28;20044;-74
2023/08/17 11:52:32;;;;;;;;;;;;;;;-144.99;nan;52305.41;5043520;28;19968;-73
2023/08/17 11:55:00;;;;;;;;;;;;;;;-144.99;nan;52240.19;5030253;28;19948;-73
2023/08/17 11:57:27;;;;;;;;;;;;;;;-144.99;nan;52276.88;5042114;28;20029;-73
2023/08/17 11:59:54;;;;;;;;;;;;;;;-144.99;nan;52240.19;5043572;28;20004;-73
2023/08/17 12:02:20;;;;;;;;;;;;;;;-144.99;nan;52319.69;5038356;28;19990;-73
2023/08/17 12:04:47;;;;;;;;;;;;;;;-144.99;nan;52254.47;5042808;28;20312;-73
2023/08/17 12:07:13;;;;;;;;;;;;;;;-144.99;nan;52264.66;5047645;28;20014;-73
2023/08/17 12:09:41;;;;;;;;;;;;;;;-144.99;nan;52293.19;5025396;28;20011;-73
2023/08/17 12:12:10;;;;;;;;;;;;;;;-144.99;nan;52280.97;5042230;28;19962;-73
2023/08/17 12:14:36;;;;;;;;;;;;;;;-144.99;nan;52252.44;5049109;28;20002;-73
2023/08/17 12:17:03;;;;;;;;;;;;;;;-144.99;nan;52268.72;5056870;28;19975;-72
2023/08/17 12:19:30;;;;;;;;;;;;;;;-144.99;nan;52285.03;5047327;28;20041;-73
2023/08/17 12:21:57;;;;;;;;;;;;;;;-144.99;nan;52301.34;5046199;28;19977;-73
2023/08/17 12:24:24;;;;;;;;;;;;;;;-144.99;nan;52280.97;5043830;28;19991;-75
2023/08/17 12:26:51;;;;;;;;;;;;;;;-144.99;nan;52266.69;5037940;28;20298;-74
2023/08/17 12:29:19;;;;;;;;;;;;;;;-144.99;nan;52264.66;5047419;28;19994;-73
2023/08/17 12:31:45;;;;;;;;;;;;;;;-144.99;nan;52297.25;5039633;28;20341;-73
2023/08/17 12:34:12;;;;;;;;;;;;;;;-144.99;nan;52305.41;5044507;28;20032;-72
2023/08/17 12:36:38;;;;;;;;;;;;;;;-144.99;nan;52236.13;5046240;28;20410;-73
2023/08/17 12:39:05;;;;;;;;;;;;;;;-144.99;nan;52283.00;5035995;28;19981;-73
2023/08/17 12:41:32;;;;;;;;;;;;;;;-144.99;nan;52244.28;5033649;28;19972;-73
2023/08/17 12:43:59;;;;;;;;;;;;;;;-144.99;nan;52260.56;5047256;28;20056;-73
2023/08/17 12:46:27;;;;;;;;;;;;;;;-144.99;nan;52248.34;5037276;28;19956;-73